Jamestown, Idaho
Current Conditions -  °F | °C
As of 9:53 AM on Sunday 23 Nov 2014 (Local Time) from KIDA Reporting Station
Clear Clear  
Wind Chill: 22°   Ceiling: Unl
Heat Index: 32°   Visibility: 10mi
Dew Point: 25°   Wind: 15mph
Humidity: 75%   Direction: 200°SSW
Pressure: 30.13"   Gusts: NA
Location:  43.2015°N, 111.522°W
Report Text: KIDA 231653Z 20013KT 10SM CLR 00/M04 A3013 RMK AO2 SLP222 T00001039
Loading
Personal Weather Stations






























Interactive Weather Map New forecast layout! Learn more

10-Day Weather Forecast

Advertisements
Track Severe Weather on mobile